sensor_id;sensor_type;location;lat;lon;timestamp;pressure;altitude;pressure_sealevel;temperature;humidity
10167;BME280;62970;53.130;8.244;2023-03-26T00:02:14;100433.72;;;7.07;68.23
10167;BME280;62970;53.130;8.244;2023-03-26T00:04:44;100444.97;;;7.06;68.56
10167;BME280;62970;53.130;8.244;2023-03-26T00:07:13;100445.84;;;7.03;68.29
10167;BME280;62970;53.130;8.244;2023-03-26T00:09:43;100449.38;;;6.99;68.21
10167;BME280;62970;53.130;8.244;2023-03-26T00:12:12;100454.59;;;6.96;68.24
10167;BME280;62970;53.130;8.244;2023-03-26T00:14:44;100453.78;;;6.92;68.53
10167;BME280;62970;53.130;8.244;2023-03-26T00:17:13;100455.53;;;6.90;68.02
10167;BME280;62970;53.130;8.244;2023-03-26T00:19:42;100455.59;;;6.86;68.36
10167;BME280;62970;53.130;8.244;2023-03-26T00:22:14;100451.34;;;6.82;68.67
10167;BME280;62970;53.130;8.244;2023-03-26T00:24:44;100457.41;;;6.79;68.68
10167;BME280;62970;53.130;8.244;2023-03-26T00:27:17;100464.38;;;6.76;68.66
10167;BME280;62970;53.130;8.244;2023-03-26T00:29:49;100459.22;;;6.73;68.50
10167;BME280;62970;53.130;8.244;2023-03-26T00:32:21;100464.44;;;6.71;68.79
10167;BME280;62970;53.130;8.244;2023-03-26T00:34:53;100467.91;;;6.68;68.81
10167;BME280;62970;53.130;8.244;2023-03-26T00:37:24;100466.25;;;6.64;68.55
10167;BME280;62970;53.130;8.244;2023-03-26T00:39:54;100467.16;;;6.60;68.49
10167;BME280;62970;53.130;8.244;2023-03-26T00:42:27;100472.38;;;6.56;68.28
10167;BME280;62970;53.130;8.244;2023-03-26T00:44:59;100472.44;;;6.51;68.66
10167;BME280;62970;53.130;8.244;2023-03-26T00:47:28;100481.09;;;6.49;69.06
10167;BME280;62970;53.130;8.244;2023-03-26T00:49:58;100480.25;;;6.48;68.94
10167;BME280;62970;53.130;8.244;2023-03-26T00:52:29;100478.53;;;6.47;69.11
10167;BME280;62970;53.130;8.244;2023-03-26T00:55:01;100474.22;;;6.48;69.33
10167;BME280;62970;53.130;8.244;2023-03-26T00:57:30;100475.06;;;6.50;69.14
10167;BME280;62970;53.130;8.244;2023-03-26T01:00:05;100465.53;;;6.50;69.21
10167;BME280;62970;53.130;8.244;2023-03-26T01:02:41;100471.59;;;6.51;69.40
10167;BME280;62970;53.130;8.244;2023-03-26T01:05:41;100478.50;;;6.50;69.47
10167;BME280;62970;53.130;8.244;2023-03-26T01:08:22;100471.59;;;6.51;69.50
10167;BME280;62970;53.130;8.244;2023-03-26T01:10:54;100475.00;;;6.53;69.52
10167;BME280;62970;53.130;8.244;2023-03-26T01:13:29;100472.41;;;6.54;69.80
10167;BME280;62970;53.130;8.244;2023-03-26T01:16:04;100483.59;;;6.56;69.50
10167;BME280;62970;53.130;8.244;2023-03-26T01:18:36;100482.72;;;6.59;69.67
10167;BME280;62970;53.130;8.244;2023-03-26T01:21:08;100487.88;;;6.60;69.75
10167;BME280;62970;53.130;8.244;2023-03-26T01:23:45;100489.59;;;6.61;69.13
10167;BME280;62970;53.130;8.244;2023-03-26T01:26:48;100488.75;;;6.59;69.29
10167;BME280;62970;53.130;8.244;2023-03-26T01:29:30;100483.56;;;6.61;69.08
10167;BME280;62970;53.130;8.244;2023-03-26T01:32:09;100486.16;;;6.61;69.38
10167;BME280;62970;53.130;8.244;2023-03-26T01:34:51;100483.56;;;6.61;69.02
10167;BME280;62970;53.130;8.244;2023-03-26T01:37:35;100480.09;;;6.62;68.88
10167;BME280;62970;53.130;8.244;2023-03-26T01:40:14;100487.84;;;6.62;69.29
10167;BME280;62970;53.130;8.244;2023-03-26T01:42:55;100477.50;;;6.60;68.81
10167;BME280;62970;53.130;8.244;2023-03-26T01:45:31;100471.47;;;6.61;68.61
10167;BME280;62970;53.130;8.244;2023-03-26T01:48:01;100479.22;;;6.63;68.91
10167;BME280;62970;53.130;8.244;2023-03-26T01:50:32;100482.69;;;6.62;68.78
10167;BME280;62970;53.130;8.244;2023-03-26T01:53:01;100486.13;;;6.62;68.75
10167;BME280;62970;53.130;8.244;2023-03-26T01:55:41;100482.69;;;6.62;68.60
10167;BME280;62970;53.130;8.244;2023-03-26T01:58:28;100484.41;;;6.61;69.02
10167;BME280;62970;53.130;8.244;2023-03-26T02:01:09;100478.34;;;6.62;68.57
10167;BME280;62970;53.130;8.244;2023-03-26T02:03:46;100479.22;;;6.61;68.88
10167;BME280;62970;53.130;8.244;2023-03-26T02:06:24;100474.91;;;6.62;68.51
10167;BME280;62970;53.130;8.244;2023-03-26T02:08:59;100478.38;;;6.61;68.53
10167;BME280;62970;53.130;8.244;2023-03-26T02:11:30;100471.47;;;6.61;68.57
10167;BME280;62970;53.130;8.244;2023-03-26T02:14:03;100468.03;;;6.59;68.91
10167;BME280;62970;53.130;8.244;2023-03-26T02:16:32;100470.59;;;6.61;68.52
10167;BME280;62970;53.130;8.244;2023-03-26T02:19:03;100464.56;;;6.60;68.86
10167;BME280;62970;53.130;8.244;2023-03-26T02:21:41;100469.72;;;6.62;68.93
10167;BME280;62970;53.130;8.244;2023-03-26T02:24:11;100461.09;;;6.61;68.52
10167;BME280;62970;53.130;8.244;2023-03-26T02:26:41;100458.50;;;6.61;68.96
10167;BME280;62970;53.130;8.244;2023-03-26T02:29:14;100462.81;;;6.61;68.38
10167;BME280;62970;53.130;8.244;2023-03-26T02:31:45;100463.69;;;6.61;68.88
10167;BME280;62970;53.130;8.244;2023-03-26T02:34:15;100455.03;;;6.62;68.39
10167;BME280;62970;53.130;8.244;2023-03-26T02:36:44;100455.91;;;6.63;68.36
10167;BME280;62970;53.130;8.244;2023-03-26T02:39:14;100453.31;;;6.63;68.49
10167;BME280;62970;53.130;8.244;2023-03-26T02:41:43;100455.91;;;6.63;68.45
10167;BME280;62970;53.130;8.244;2023-03-26T02:44:15;100452.44;;;6.62;68.09
10167;BME280;62970;53.130;8.244;2023-03-26T02:46:44;100457.63;;;6.62;68.40
10167;BME280;62970;53.130;8.244;2023-03-26T02:49:14;100451.59;;;6.62;68.23
10167;BME280;62970;53.130;8.244;2023-03-26T02:51:44;100455.91;;;6.61;67.95
10167;BME280;62970;53.130;8.244;2023-03-26T02:54:13;100449.88;;;6.61;68.07
10167;BME280;62970;53.130;8.244;2023-03-26T02:56:42;100443.00;;;6.58;67.98
10167;BME280;62970;53.130;8.244;2023-03-26T02:59:14;100437.00;;;6.53;67.79
10167;BME280;62970;53.130;8.244;2023-03-26T03:01:43;100435.41;;;6.45;67.06
10167;BME280;62970;53.130;8.244;2023-03-26T03:04:12;100439.84;;;6.33;67.26
10167;BME280;62970;53.130;8.244;2023-03-26T03:06:43;100440.84;;;6.22;66.92
10167;BME280;62970;53.130;8.244;2023-03-26T03:09:12;100441.81;;;6.12;67.05
10167;BME280;62970;53.130;8.244;2023-03-26T03:11:43;100436.72;;;6.02;67.37
10167;BME280;62970;53.130;8.244;2023-03-26T03:14:14;100442.84;;;5.94;67.50
10167;BME280;62970;53.130;8.244;2023-03-26T03:16:44;100442.91;;;5.89;67.48
10167;BME280;62970;53.130;8.244;2023-03-26T03:19:13;100448.06;;;5.89;67.79
10167;BME280;62970;53.130;8.244;2023-03-26T03:21:42;100450.66;;;5.89;68.02
10167;BME280;62970;53.130;8.244;2023-03-26T03:24:12;100455.81;;;5.92;67.73
10167;BME280;62970;53.130;8.244;2023-03-26T03:26:43;100450.59;;;5.95;67.74
10167;BME280;62970;53.130;8.244;2023-03-26T03:29:17;100447.97;;;5.98;67.74
10167;BME280;62970;53.130;8.244;2023-03-26T03:31:47;100446.22;;;6.00;68.02
10167;BME280;62970;53.130;8.244;2023-03-26T03:34:16;100452.25;;;6.04;67.69
10167;BME280;62970;53.130;8.244;2023-03-26T03:36:46;100449.63;;;6.06;67.71
10167;BME280;62970;53.130;8.244;2023-03-26T03:39:17;100458.25;;;6.08;67.66
10167;BME280;62970;53.130;8.244;2023-03-26T03:41:48;100459.09;;;6.10;67.75
10167;BME280;62970;53.130;8.244;2023-03-26T03:44:20;100453.91;;;6.10;67.68
10167;BME280;62970;53.130;8.244;2023-03-26T03:46:50;100458.22;;;6.11;67.42
10167;BME280;62970;53.130;8.244;2023-03-26T03:49:20;100456.50;;;6.10;67.33
10167;BME280;62970;53.130;8.244;2023-03-26T03:51:50;100457.38;;;6.09;67.10
10167;BME280;62970;53.130;8.244;2023-03-26T03:54:19;100452.19;;;6.09;66.81
10167;BME280;62970;53.130;8.244;2023-03-26T03:56:49;100451.34;;;6.07;66.49
10167;BME280;62970;53.130;8.244;2023-03-26T03:59:21;100452.25;;;6.02;66.55
10167;BME280;62970;53.130;8.244;2023-03-26T04:01:50;100446.22;;;6.00;66.75
10167;BME280;62970;53.130;8.244;2023-03-26T04:04:19;100453.16;;;5.97;66.32
10167;BME280;62970;53.130;8.244;2023-03-26T04:06:50;100453.22;;;5.92;66.34
10167;BME280;62970;53.130;8.244;2023-03-26T04:09:19;100449.81;;;5.87;66.57
10167;BME280;62970;53.130;8.244;2023-03-26T04:11:49;100454.16;;;5.84;66.30
10167;BME280;62970;53.130;8.244;2023-03-26T04:14:21;100452.47;;;5.81;66.70
10167;BME280;62970;53.130;8.244;2023-03-26T04:16:51;100455.03;;;5.83;66.72
10167;BME280;62970;53.130;8.244;2023-03-26T04:19:20;100456.75;;;5.82;66.54
10167;BME280;62970;53.130;8.244;2023-03-26T04:21:49;100449.00;;;5.82;66.22
10167;BME280;62970;53.130;8.244;2023-03-26T04:24:19;100452.44;;;5.83;66.53
10167;BME280;62970;53.130;8.244;2023-03-26T04:26:49;100446.41;;;5.82;66.22
10167;BME280;62970;53.130;8.244;2023-03-26T04:29:21;100432.66;;;5.79;66.57
10167;BME280;62970;53.130;8.244;2023-03-26T04:31:54;100437.00;;;5.74;66.30
10167;BME280;62970;53.130;8.244;2023-03-26T04:34:33;100437.06;;;5.67;66.75
10167;BME280;62970;53.130;8.244;2023-03-26T04:37:02;100434.50;;;5.63;66.55
10167;BME280;62970;53.130;8.244;2023-03-26T04:39:32;100432.81;;;5.59;66.17
10167;BME280;62970;53.130;8.244;2023-03-26T04:42:01;100435.47;;;5.53;66.70
10167;BME280;62970;53.130;8.244;2023-03-26T04:44:33;100434.63;;;5.48;66.65
10167;BME280;62970;53.130;8.244;2023-03-26T04:47:08;100436.41;;;5.43;66.54
10167;BME280;62970;53.130;8.244;2023-03-26T04:49:38;100438.16;;;5.39;66.90
10167;BME280;62970;53.130;8.244;2023-03-26T04:52:09;100439.91;;;5.35;66.90
10167;BME280;62970;53.130;8.244;2023-03-26T04:54:39;100436.44;;;5.32;66.53
10167;BME280;62970;53.130;8.244;2023-03-26T04:57:14;100437.34;;;5.29;67.14
10167;BME280;62970;53.130;8.244;2023-03-26T04:59:50;100438.19;;;5.30;67.34
10167;BME280;62970;53.130;8.244;2023-03-26T05:02:21;100431.28;;;5.30;67.00
10167;BME280;62970;53.130;8.244;2023-03-26T05:04:52;100446.81;;;5.33;67.10
10167;BME280;62970;53.130;8.244;2023-03-26T05:07:22;100431.28;;;5.36;67.56
10167;BME280;62970;53.130;8.244;2023-03-26T05:09:51;100436.41;;;5.41;67.21
10167;BME280;62970;53.130;8.244;2023-03-26T05:12:22;100438.09;;;5.45;67.52
10167;BME280;62970;53.130;8.244;2023-03-26T05:14:54;100438.06;;;5.50;67.57
10167;BME280;62970;53.130;8.244;2023-03-26T05:17:24;100438.03;;;5.54;67.54
10167;BME280;62970;53.130;8.244;2023-03-26T05:19:55;100435.41;;;5.60;67.50
10167;BME280;62970;53.130;8.244;2023-03-26T05:22:25;100435.38;;;5.63;67.51
10167;BME280;62970;53.130;8.244;2023-03-26T05:24:55;100429.28;;;5.67;67.13
10167;BME280;62970;53.130;8.244;2023-03-26T05:27:25;100434.44;;;5.72;67.50
10167;BME280;62970;53.130;8.244;2023-03-26T05:30:00;100434.41;;;5.74;67.57
10167;BME280;62970;53.130;8.244;2023-03-26T05:32:30;100436.97;;;5.78;67.31
10167;BME280;62970;53.130;8.244;2023-03-26T05:34:59;100431.75;;;5.81;67.52
10167;BME280;62970;53.130;8.244;2023-03-26T05:37:31;100433.47;;;5.84;67.17
10167;BME280;62970;53.130;8.244;2023-03-26T05:40:00;100437.75;;;5.86;66.98
10167;BME280;62970;53.130;8.244;2023-03-26T05:42:44;100436.00;;;5.88;67.43
10167;BME280;62970;53.130;8.244;2023-03-26T05:45:19;100435.97;;;5.91;67.07
10167;BME280;62970;53.130;8.244;2023-03-26T05:47:49;100442.00;;;5.93;67.07
10167;BME280;62970;53.130;8.244;2023-03-26T05:50:20;100443.69;;;5.96;67.02
10167;BME280;62970;53.130;8.244;2023-03-26T05:52:49;100435.03;;;5.98;66.83
10167;BME280;62970;53.130;8.244;2023-03-26T05:55:19;100436.75;;;5.99;66.67
10167;BME280;62970;53.130;8.244;2023-03-26T05:57:54;100444.50;;;6.01;67.05
10167;BME280;62970;53.130;8.244;2023-03-26T06:00:26;100428.97;;;6.02;66.95
10167;BME280;62970;53.130;8.244;2023-03-26T06:02:55;100438.41;;;6.07;66.60
10167;BME280;62970;53.130;8.244;2023-03-26T06:05:26;100436.66;;;6.09;66.75
10167;BME280;62970;53.130;8.244;2023-03-26T06:07:57;100435.81;;;6.08;66.17
10167;BME280;62970;53.130;8.244;2023-03-26T06:10:28;100443.53;;;6.11;66.36
10167;BME280;62970;53.130;8.244;2023-03-26T06:12:57;100441.81;;;6.12;66.14
10167;BME280;62970;53.130;8.244;2023-03-26T06:15:29;100440.94;;;6.13;65.92
10167;BME280;62970;53.130;8.244;2023-03-26T06:17:58;100433.16;;;6.14;66.28
10167;BME280;62970;53.130;8.244;2023-03-26T06:20:27;100438.31;;;6.16;66.27
10167;BME280;62970;53.130;8.244;2023-03-26T06:22:56;100433.97;;;6.18;66.35
10167;BME280;62970;53.130;8.244;2023-03-26T06:25:26;100427.94;;;6.19;66.02
10167;BME280;62970;53.130;8.244;2023-03-26T06:27:55;100427.06;;;6.20;65.96
10167;BME280;62970;53.130;8.244;2023-03-26T06:30:28;100433.06;;;6.22;66.20
10167;BME280;62970;53.130;8.244;2023-03-26T06:32:57;100433.00;;;6.26;65.73
10167;BME280;62970;53.130;8.244;2023-03-26T06:35:26;100448.50;;;6.29;65.83
10167;BME280;62970;53.130;8.244;2023-03-26T06:37:56;100436.44;;;6.28;65.49
10167;BME280;62970;53.130;8.244;2023-03-26T06:40:25;100441.63;;;6.28;65.45
10167;BME280;62970;53.130;8.244;2023-03-26T06:42:55;100445.06;;;6.29;65.16
10167;BME280;62970;53.130;8.244;2023-03-26T06:45:29;100443.31;;;6.31;65.15
10167;BME280;62970;53.130;8.244;2023-03-26T06:48:00;100448.47;;;6.32;65.51
10167;BME280;62970;53.130;8.244;2023-03-26T06:50:30;100446.75;;;6.33;64.51
10167;BME280;62970;53.130;8.244;2023-03-26T06:52:59;100447.66;;;6.30;64.30
10167;BME280;62970;53.130;8.244;2023-03-26T06:55:28;100444.22;;;6.27;64.15
10167;BME280;62970;53.130;8.244;2023-03-26T06:58:00;100444.25;;;6.25;64.20
10167;BME280;62970;53.130;8.244;2023-03-26T07:00:33;100454.59;;;6.25;64.12
10167;BME280;62970;53.130;8.244;2023-03-26T07:03:03;100452.00;;;6.27;64.10
10167;BME280;62970;53.130;8.244;2023-03-26T07:05:33;100444.22;;;6.28;63.54
10167;BME280;62970;53.130;8.244;2023-03-26T07:08:03;100450.22;;;6.30;63.59
10167;BME280;62970;53.130;8.244;2023-03-26T07:10:32;100445.91;;;6.32;63.54
10167;BME280;62970;53.130;8.244;2023-03-26T07:13:01;100452.81;;;6.32;63.36
10167;BME280;62970;53.130;8.244;2023-03-26T07:15:33;100453.69;;;6.31;63.33
10167;BME280;62970;53.130;8.244;2023-03-26T07:18:03;100450.25;;;6.29;63.25
10167;BME280;62970;53.130;8.244;2023-03-26T07:20:33;100451.97;;;6.28;63.07
10167;BME280;62970;53.130;8.244;2023-03-26T07:23:03;100448.53;;;6.28;62.66
10167;BME280;62970;53.130;8.244;2023-03-26T07:25:33;100449.38;;;6.28;62.78
10167;BME280;62970;53.130;8.244;2023-03-26T07:28:11;100448.53;;;6.28;63.10
10167;BME280;62970;53.130;8.244;2023-03-26T07:30:57;100440.78;;;6.28;62.68
10167;BME280;62970;53.130;8.244;2023-03-26T07:33:32;100446.81;;;6.28;62.16
10167;BME280;62970;53.130;8.244;2023-03-26T07:36:17;100443.38;;;6.26;62.24
10167;BME280;62970;53.130;8.244;2023-03-26T07:39:04;100441.66;;;6.25;62.15
10167;BME280;62970;53.130;8.244;2023-03-26T07:41:44;100444.22;;;6.27;62.15
10167;BME280;62970;53.130;8.244;2023-03-26T07:44:40;100445.06;;;6.30;62.51
10167;BME280;62970;53.130;8.244;2023-03-26T07:47:22;100445.03;;;6.33;61.94
10167;BME280;62970;53.130;8.244;2023-03-26T07:49:54;100439.84;;;6.33;61.89
10167;BME280;62970;53.130;8.244;2023-03-26T07:52:26;100439.84;;;6.33;61.55
10167;BME280;62970;53.130;8.244;2023-03-26T07:54:58;100444.09;;;6.38;61.45
10167;BME280;62970;53.130;8.244;2023-03-26T07:57:39;100438.94;;;6.38;61.85
10167;BME280;62970;53.130;8.244;2023-03-26T08:00:18;100434.56;;;6.41;61.63
10167;BME280;62970;53.130;8.244;2023-03-26T08:03:25;100439.69;;;6.47;61.64
10167;BME280;62970;53.130;8.244;2023-03-26T08:06:07;100437.00;;;6.53;61.52
10167;BME280;62970;53.130;8.244;2023-03-26T08:08:47;100442.13;;;6.59;61.69
10167;BME280;62970;53.130;8.244;2023-03-26T08:11:33;100437.78;;;6.61;61.07
10167;BME280;62970;53.130;8.244;2023-03-26T08:14:31;100430.84;;;6.63;61.61
10167;BME280;62970;53.130;8.244;2023-03-26T08:17:10;100425.63;;;6.66;61.37
10167;BME280;62970;53.130;8.244;2023-03-26T08:19:59;100429.06;;;6.67;61.19
10167;BME280;62970;53.130;8.244;2023-03-26T08:22:34;100430.72;;;6.73;60.47
10167;BME280;62970;53.130;8.244;2023-03-26T08:25:19;100428.06;;;6.77;61.18
10167;BME280;62970;53.130;8.244;2023-03-26T08:28:03;100421.09;;;6.81;60.81
10167;BME280;62970;53.130;8.244;2023-03-26T08:30:37;100430.56;;;6.85;60.46
10167;BME280;62970;53.130;8.244;2023-03-26T08:33:13;100433.94;;;6.90;60.66
10167;BME280;62970;53.130;8.244;2023-03-26T08:35:47;100430.44;;;6.94;60.47
10167;BME280;62970;53.130;8.244;2023-03-26T08:38:19;100439.00;;;6.99;59.76
10167;BME280;62970;53.130;8.244;2023-03-26T08:48:04;100444.13;;;7.04;60.39
10167;BME280;62970;53.130;8.244;2023-03-26T08:54:11;100440.44;;;7.18;59.73
10167;BME280;62970;53.130;8.244;2023-03-26T08:56:51;100444.75;;;7.21;59.56
10167;BME280;62970;53.130;8.244;2023-03-26T09:00:00;100434.28;;;7.27;59.29
10167;BME280;62970;53.130;8.244;2023-03-26T09:03:06;100439.44;;;7.30;59.21
10167;BME280;62970;53.130;8.244;2023-03-26T09:15:50;100430.25;;;7.65;58.10
10167;BME280;62970;53.130;8.244;2023-03-26T09:19:19;100430.22;;;7.68;58.10
10167;BME280;62970;53.130;8.244;2023-03-26T09:25:47;100428.97;;;7.88;57.52
10167;BME280;62970;53.130;8.244;2023-03-26T09:35:10;100427.97;;;7.97;56.97
10167;BME280;62970;53.130;8.244;2023-03-26T09:37:56;100430.41;;;8.05;57.41
10167;BME280;62970;53.130;8.244;2023-03-26T09:40:35;100433.81;;;8.08;56.98
10167;BME280;62970;53.130;8.244;2023-03-26T09:43:40;100438.91;;;8.13;56.76
10167;BME280;62970;53.130;8.244;2023-03-26T09:46:25;100443.16;;;8.18;56.71
10167;BME280;62970;53.130;8.244;2023-03-26T09:49:44;100448.22;;;8.24;57.09
10167;BME280;62970;53.130;8.244;2023-03-26T09:52:43;100450.72;;;8.29;56.49
10167;BME280;62970;53.130;8.244;2023-03-26T09:55:41;100447.88;;;8.41;56.57
10167;BME280;62970;53.130;8.244;2023-03-26T09:58:52;100444.94;;;8.59;56.26
10167;BME280;62970;53.130;8.244;2023-03-26T10:01:32;100444.56;;;8.76;56.15
10167;BME280;62970;53.130;8.244;2023-03-26T10:07:46;100451.16;;;8.94;55.69
10167;BME280;62970;53.130;8.244;2023-03-26T10:10:30;100458.03;;;8.97;54.94
10167;BME280;62970;53.130;8.244;2023-03-26T10:13:16;100453.66;;;8.99;55.27
10167;BME280;62970;53.130;8.244;2023-03-26T10:16:03;100447.56;;;9.00;54.91
10167;BME280;62970;53.130;8.244;2023-03-26T10:18:46;100449.38;;;8.96;54.54
10167;BME280;62970;53.130;8.244;2023-03-26T10:21:25;100452.06;;;8.91;54.23
10167;BME280;62970;53.130;8.244;2023-03-26T10:24:22;100443.44;;;8.89;54.55
10167;BME280;62970;53.130;8.244;2023-03-26T10:27:07;100448.63;;;8.91;54.71
10167;BME280;62970;53.130;8.244;2023-03-26T10:33:12;100449.44;;;8.93;54.46
10167;BME280;62970;53.130;8.244;2023-03-26T10:35:54;100450.34;;;8.92;53.91
10167;BME280;62970;53.130;8.244;2023-03-26T10:38:51;100443.41;;;8.91;53.91
10167;BME280;62970;53.130;8.244;2023-03-26T10:41:32;100440.03;;;8.87;53.86
10167;BME280;62970;53.130;8.244;2023-03-26T10:44:38;100447.78;;;8.89;54.30
10167;BME280;62970;53.130;8.244;2023-03-26T10:50:56;100447.72;;;8.92;53.17
10167;BME280;62970;53.130;8.244;2023-03-26T10:53:35;100450.22;;;8.97;53.45
10167;BME280;62970;53.130;8.244;2023-03-26T10:56:13;100455.44;;;8.97;52.79
10167;BME280;62970;53.130;8.244;2023-03-26T10:58:44;100453.69;;;8.97;52.84
10167;BME280;62970;53.130;8.244;2023-03-26T11:01:26;100462.47;;;8.91;52.14
10167;BME280;62970;53.130;8.244;2023-03-26T11:04:17;100459.91;;;8.90;52.65
10167;BME280;62970;53.130;8.244;2023-03-26T11:06:59;100459.06;;;8.89;52.24
10167;BME280;62970;53.130;8.244;2023-03-26T11:09:41;100458.03;;;8.97;52.86
10167;BME280;62970;53.130;8.244;2023-03-26T11:12:19;100465.56;;;9.09;52.32
10167;BME280;62970;53.130;8.244;2023-03-26T11:15:09;100459.31;;;9.17;52.17
10167;BME280;62970;53.130;8.244;2023-03-26T11:17:49;100454.84;;;9.22;51.89
10167;BME280;62970;53.130;8.244;2023-03-26T11:20:28;100465.22;;;9.24;51.71
10167;BME280;62970;53.130;8.244;2023-03-26T11:23:19;100458.19;;;9.28;51.94
10167;BME280;62970;53.130;8.244;2023-03-26T11:26:05;100458.88;;;9.36;51.63
10167;BME280;62970;53.130;8.244;2023-03-26T11:29:09;100464.97;;;9.35;48.24
10167;BME280;62970;53.130;8.244;2023-03-26T11:31:53;100473.75;;;9.31;51.42
10167;BME280;62970;53.130;8.244;2023-03-26T11:34:29;100473.75;;;9.31;51.23
10167;BME280;62970;53.130;8.244;2023-03-26T11:37:01;100466.91;;;9.27;50.80
10167;BME280;62970;53.130;8.244;2023-03-26T11:39:41;100465.28;;;9.21;50.67
10167;BME280;62970;53.130;8.244;2023-03-26T11:42:16;100467.16;;;9.14;50.12
10167;BME280;62970;53.130;8.244;2023-03-26T11:59:15;100454.47;;;9.39;51.90
10167;BME280;62970;53.130;8.244;2023-03-26T12:01:50;100455.13;;;9.47;50.28
10167;BME280;62970;53.130;8.244;2023-03-26T12:04:27;100450.69;;;9.51;50.97
10167;BME280;62970;53.130;8.244;2023-03-26T12:07:13;100451.38;;;9.59;50.88
10167;BME280;62970;53.130;8.244;2023-03-26T12:09:50;100455.56;;;9.65;49.90
10167;BME280;62970;53.130;8.244;2023-03-26T12:12:22;100451.38;;;9.59;49.38
10167;BME280;62970;53.130;8.244;2023-03-26T12:14:57;100448.09;;;9.51;48.68
10167;BME280;62970;53.130;8.244;2023-03-26T12:17:30;100448.41;;;9.39;48.95
10167;BME280;62970;53.130;8.244;2023-03-26T12:20:31;100465.13;;;9.29;49.42
10167;BME280;62970;53.130;8.244;2023-03-26T12:23:03;100446.16;;;9.23;49.26
10167;BME280;62970;53.130;8.244;2023-03-26T12:25:35;100447.19;;;9.16;48.85
10167;BME280;62970;53.130;8.244;2023-03-26T12:28:17;100451.03;;;9.00;48.69
10167;BME280;62970;53.130;8.244;2023-03-26T12:30:59;100456.56;;;8.85;48.62
10167;BME280;62970;53.130;8.244;2023-03-26T12:33:31;100448.91;;;8.76;49.05
10167;BME280;62970;53.130;8.244;2023-03-26T12:36:20;100454.97;;;8.78;47.32
10167;BME280;62970;53.130;8.244;2023-03-26T12:38:51;100449.59;;;8.85;48.73
10167;BME280;62970;53.130;8.244;2023-03-26T12:41:33;100449.50;;;8.90;48.26
10167;BME280;62970;53.130;8.244;2023-03-26T12:44:22;100451.38;;;8.83;48.27
10167;BME280;62970;53.130;8.244;2023-03-26T12:47:17;100457.69;;;8.70;48.38
10167;BME280;62970;53.130;8.244;2023-03-26T12:49:49;100457.84;;;8.63;48.14
10167;BME280;62970;53.130;8.244;2023-03-26T12:52:51;100456.19;;;8.60;48.95
10167;BME280;62970;53.130;8.244;2023-03-26T12:55:38;100456.19;;;8.60;46.96
10167;BME280;62970;53.130;8.244;2023-03-26T12:58:30;100456.16;;;8.62;48.46
10167;BME280;62970;53.130;8.244;2023-03-26T13:01:10;100455.91;;;8.72;48.55
10167;BME280;62970;53.130;8.244;2023-03-26T13:04:06;100445.25;;;8.86;44.76
10167;BME280;62970;53.130;8.244;2023-03-26T13:06:42;100462.41;;;8.95;48.33
10167;BME280;62970;53.130;8.244;2023-03-26T13:12:26;100461.63;;;8.91;47.90
10167;BME280;62970;53.130;8.244;2023-03-26T13:15:20;100473.94;;;8.83;48.60
10167;BME280;62970;53.130;8.244;2023-03-26T13:18:06;100461.91;;;8.77;47.98
10167;BME280;62970;53.130;8.244;2023-03-26T13:21:02;100467.91;;;8.81;48.12
10167;BME280;62970;53.130;8.244;2023-03-26T13:23:44;100458.31;;;8.83;48.37
10167;BME280;62970;53.130;8.244;2023-03-26T13:26:35;100466.16;;;8.81;47.66
10167;BME280;62970;53.130;8.244;2023-03-26T13:29:13;100480.13;;;8.76;46.42
10167;BME280;62970;53.130;8.244;2023-03-26T13:31:53;100472.56;;;8.64;46.27
10167;BME280;62970;53.130;8.244;2023-03-26T13:34:32;100481.50;;;8.50;47.64
10167;BME280;62970;53.130;8.244;2023-03-26T13:37:14;100474.72;;;8.42;47.52
10167;BME280;62970;53.130;8.244;2023-03-26T13:39:57;100467.84;;;8.39;47.67
10167;BME280;62970;53.130;8.244;2023-03-26T13:42:41;100461.78;;;8.40;47.34
10167;BME280;62970;53.130;8.244;2023-03-26T13:45:29;100479.06;;;8.41;46.90
10167;BME280;62970;53.130;8.244;2023-03-26T13:48:03;100480.91;;;8.36;46.55
10167;BME280;62970;53.130;8.244;2023-03-26T13:50:39;100471.53;;;8.27;46.79
10167;BME280;62970;53.130;8.244;2023-03-26T13:53:16;100473.28;;;8.27;46.74
10167;BME280;62970;53.130;8.244;2023-03-26T13:55:50;100474.97;;;8.30;46.92
10167;BME280;62970;53.130;8.244;2023-03-26T13:58:25;100472.41;;;8.28;46.81
10167;BME280;62970;53.130;8.244;2023-03-26T14:01:04;100471.63;;;8.23;46.72
10167;BME280;62970;53.130;8.244;2023-03-26T14:03:47;100483.84;;;8.18;46.30
10167;BME280;62970;53.130;8.244;2023-03-26T14:06:37;100474.34;;;8.17;46.07
10167;BME280;62970;53.130;8.244;2023-03-26T14:09:18;100489.00;;;8.19;46.83
10167;BME280;62970;53.130;8.244;2023-03-26T14:12:30;100482.88;;;8.23;47.15
10167;BME280;62970;53.130;8.244;2023-03-26T14:15:03;100494.97;;;8.24;46.72
10167;BME280;62970;53.130;8.244;2023-03-26T14:17:37;100492.50;;;8.17;46.80
10167;BME280;62970;53.130;8.244;2023-03-26T14:20:50;100489.28;;;8.04;43.55
10167;BME280;62970;53.130;8.244;2023-03-26T14:27:32;100482.66;;;7.88;47.25
10167;BME280;62970;53.130;8.244;2023-03-26T14:30:36;100499.03;;;7.90;46.90
10167;BME280;62970;53.130;8.244;2023-03-26T14:33:26;100495.53;;;7.92;47.21
10167;BME280;62970;53.130;8.244;2023-03-26T14:36:09;100505.16;;;7.87;46.29
10167;BME280;62970;53.130;8.244;2023-03-26T14:39:09;100506.16;;;7.79;46.76
10167;BME280;62970;53.130;8.244;2023-03-26T14:41:47;100513.22;;;7.69;46.27
10167;BME280;62970;53.130;8.244;2023-03-26T14:44:56;100509.09;;;7.57;46.38
10167;BME280;62970;53.130;8.244;2023-03-26T14:47:38;100511.66;;;7.59;46.25
10167;BME280;62970;53.130;8.244;2023-03-26T14:50:44;100510.78;;;7.60;46.95
10167;BME280;62970;53.130;8.244;2023-03-26T14:53:27;100512.47;;;7.62;46.97
10167;BME280;62970;53.130;8.244;2023-03-26T15:00:14;100514.03;;;7.74;46.08
10167;BME280;62970;53.130;8.244;2023-03-26T15:10:21;100525.63;;;7.52;46.65